createdAt,value
2016-10-06T00:00:52.821Z,0
2016-10-06T00:01:52.840Z,0
2016-10-06T00:02:52.858Z,0
2016-10-06T00:03:52.896Z,0
2016-10-06T00:04:52.884Z,0
2016-10-06T00:05:52.903Z,0
2016-10-06T00:06:52.912Z,0
2016-10-06T00:07:52.915Z,0
2016-10-06T00:08:52.945Z,0
2016-10-06T00:09:52.969Z,0
2016-10-06T00:10:52.991Z,0
2016-10-06T00:11:53.013Z,0
2016-10-06T00:12:53.013Z,0
2016-10-06T00:13:53.033Z,0
2016-10-06T00:14:53.045Z,0
2016-10-06T00:15:53.065Z,0
2016-10-06T00:16:53.081Z,0
2016-10-06T00:17:53.090Z,0
2016-10-06T00:18:53.096Z,0
2016-10-06T00:19:53.123Z,0
2016-10-06T00:20:53.140Z,0
2016-10-06T00:21:53.141Z,0
2016-10-06T00:22:53.151Z,0
2016-10-06T00:23:53.175Z,0
2016-10-06T00:24:53.178Z,0
2016-10-06T00:25:53.218Z,0
2016-10-06T00:26:53.235Z,0
2016-10-06T00:27:53.242Z,0
2016-10-06T00:28:53.247Z,0
2016-10-06T00:29:53.259Z,0
2016-10-06T00:30:53.286Z,0
2016-10-06T00:31:53.292Z,0
2016-10-06T00:32:53.328Z,0
2016-10-06T00:33:53.342Z,0
2016-10-06T00:34:53.351Z,0
2016-10-06T00:35:53.359Z,0
2016-10-06T00:36:53.385Z,0
2016-10-06T00:37:53.389Z,0
2016-10-06T00:38:53.417Z,0
2016-10-06T00:39:53.433Z,0
2016-10-06T00:40:53.438Z,0
2016-10-06T00:41:53.463Z,0
2016-10-06T00:42:53.458Z,0
2016-10-06T00:43:53.500Z,0
2016-10-06T00:44:53.496Z,0
2016-10-06T00:45:53.514Z,0
2016-10-06T00:46:53.527Z,0
2016-10-06T00:47:53.544Z,0
2016-10-06T00:48:53.554Z,0
2016-10-06T00:49:53.595Z,0
2016-10-06T00:50:53.577Z,0
2016-10-06T00:51:53.592Z,0
2016-10-06T00:52:53.626Z,0
2016-10-06T00:53:53.650Z,0
2016-10-06T00:54:53.627Z,0
2016-10-06T00:55:53.670Z,0
2016-10-06T00:56:53.674Z,0
2016-10-06T00:57:53.723Z,0
2016-10-06T00:58:53.704Z,0
2016-10-06T00:59:53.729Z,0
2016-10-06T01:00:53.746Z,0
2016-10-06T01:01:53.729Z,0
2016-10-06T01:02:53.773Z,0
2016-10-06T01:03:53.792Z,0
2016-10-06T01:04:53.790Z,0
2016-10-06T01:05:53.829Z,0
2016-10-06T01:06:53.811Z,0
2016-10-06T01:07:53.849Z,0
2016-10-06T01:08:53.853Z,0
2016-10-06T01:09:53.877Z,0
2016-10-06T01:10:53.898Z,0
2016-10-06T01:11:53.917Z,0
2016-10-06T01:12:53.935Z,0
2016-10-06T01:13:53.947Z,0
2016-10-06T01:14:53.941Z,0
2016-10-06T01:15:53.975Z,0
2016-10-06T01:16:53.974Z,0
2016-10-06T01:17:53.988Z,0
2016-10-06T01:18:54.023Z,0
2016-10-06T01:19:54.038Z,0
2016-10-06T01:20:54.054Z,0
2016-10-06T01:21:54.048Z,0
2016-10-06T01:22:54.070Z,0
2016-10-06T01:23:54.099Z,0
2016-10-06T01:24:54.119Z,0
2016-10-06T01:25:54.126Z,0
2016-10-06T01:26:54.148Z,0
2016-10-06T01:27:54.137Z,0
2016-10-06T01:28:54.158Z,0
2016-10-06T01:29:54.184Z,0
2016-10-06T01:30:54.217Z,0
2016-10-06T01:31:54.213Z,0
2016-10-06T01:32:54.222Z,0
2016-10-06T01:33:54.215Z,0
2016-10-06T01:34:54.245Z,0
2016-10-06T01:35:54.271Z,0
2016-10-06T01:36:54.286Z,0
2016-10-06T01:37:54.293Z,0
2016-10-06T01:38:54.323Z,0
2016-10-06T01:39:54.341Z,0
2016-10-06T01:40:54.351Z,0
2016-10-06T01:41:54.359Z,0
2016-10-06T01:42:54.379Z,0
2016-10-06T01:43:54.386Z,0
2016-10-06T01:44:54.395Z,0
2016-10-06T01:45:54.411Z,0
2016-10-06T01:46:54.440Z,0
2016-10-06T01:47:54.435Z,0
2016-10-06T01:48:54.463Z,0
2016-10-06T01:49:54.469Z,0
2016-10-06T01:50:54.508Z,0
2016-10-06T01:51:54.499Z,0
2016-10-06T01:52:54.520Z,0
2016-10-06T01:53:54.544Z,0
2016-10-06T01:54:54.543Z,0
2016-10-06T01:55:54.566Z,0
2016-10-06T01:56:54.594Z,0
2016-10-06T01:57:54.580Z,0
2016-10-06T01:58:54.606Z,0
2016-10-06T01:59:54.629Z,0
2016-10-06T02:00:54.638Z,0
2016-10-06T02:01:54.655Z,0
2016-10-06T02:02:54.683Z,0
2016-10-06T02:03:54.691Z,0
2016-10-06T02:04:54.698Z,0
2016-10-06T02:05:54.724Z,0
2016-10-06T02:06:54.751Z,0
2016-10-06T02:07:54.756Z,0
2016-10-06T02:08:54.761Z,0
2016-10-06T02:09:54.779Z,0
2016-10-06T02:10:54.811Z,0
2016-10-06T02:11:54.810Z,0
2016-10-06T02:12:54.815Z,0
2016-10-06T02:13:54.836Z,0
2016-10-06T02:14:54.852Z,0
2016-10-06T02:15:54.876Z,0
2016-10-06T02:16:54.889Z,0
2016-10-06T02:17:54.894Z,0
2016-10-06T02:18:54.908Z,0
2016-10-06T02:19:54.937Z,0
2016-10-06T02:20:54.940Z,0
2016-10-06T02:21:54.992Z,0
2016-10-06T02:22:54.980Z,0
2016-10-06T02:23:55.008Z,0
2016-10-06T02:24:55.005Z,0
2016-10-06T02:25:55.032Z,0
2016-10-06T02:26:55.037Z,0
2016-10-06T02:27:55.058Z,0
2016-10-06T02:28:55.067Z,0
2016-10-06T02:29:55.075Z,0
2016-10-06T02:30:55.085Z,0
2016-10-06T02:31:55.133Z,0
2016-10-06T02:32:55.142Z,0
2016-10-06T02:33:55.148Z,0
2016-10-06T02:34:55.143Z,0
2016-10-06T02:35:55.168Z,0
2016-10-06T02:36:55.206Z,0
2016-10-06T02:37:55.203Z,0
2016-10-06T02:38:55.224Z,0
2016-10-06T02:39:55.245Z,0
2016-10-06T02:40:55.242Z,0
2016-10-06T02:41:55.250Z,0
2016-10-06T02:42:55.272Z,0
2016-10-06T02:43:55.293Z,0
2016-10-06T02:44:55.305Z,0
2016-10-06T02:45:55.323Z,0
2016-10-06T02:46:55.326Z,0
2016-10-06T02:47:55.349Z,0
2016-10-06T02:48:55.364Z,0
2016-10-06T02:49:55.365Z,0
2016-10-06T02:50:55.398Z,0
2016-10-06T02:51:55.401Z,0
2016-10-06T02:52:55.426Z,0
2016-10-06T02:53:55.434Z,0
2016-10-06T02:54:55.440Z,0
2016-10-06T02:55:55.479Z,0
2016-10-06T02:56:55.478Z,0
2016-10-06T02:57:55.497Z,0
2016-10-06T02:58:55.510Z,0
2016-10-06T02:59:55.550Z,0
2016-10-06T03:00:55.561Z,0
2016-10-06T03:01:55.563Z,0
2016-10-06T03:02:55.555Z,0
2016-10-06T03:03:55.625Z,0
2016-10-06T03:04:55.609Z,0
2016-10-06T03:05:55.617Z,0
2016-10-06T03:06:55.637Z,0
2016-10-06T03:07:55.638Z,0
2016-10-06T03:08:55.666Z,0
2016-10-06T03:09:55.679Z,0
2016-10-06T03:10:55.697Z,0
2016-10-06T03:11:55.687Z,0
2016-10-06T03:12:55.717Z,0
2016-10-06T03:13:55.737Z,0
2016-10-06T03:14:55.751Z,0
2016-10-06T03:15:55.764Z,0
2016-10-06T03:16:55.777Z,0
2016-10-06T03:17:55.796Z,0
2016-10-06T03:18:55.818Z,0
2016-10-06T03:19:55.827Z,0
2016-10-06T03:20:55.823Z,0
2016-10-06T03:21:55.865Z,0
2016-10-06T03:22:55.858Z,0
2016-10-06T03:23:55.880Z,0
2016-10-06T03:24:55.896Z,0
2016-10-06T03:25:55.892Z,0
2016-10-06T03:26:55.932Z,0
2016-10-06T03:27:55.941Z,0
2016-10-06T03:28:55.957Z,0
2016-10-06T03:29:55.977Z,0
2016-10-06T03:30:55.998Z,0
2016-10-06T03:31:56.010Z,0
2016-10-06T03:32:56.030Z,0
2016-10-06T03:33:56.028Z,0
2016-10-06T03:34:56.041Z,0
2016-10-06T03:35:56.069Z,0
2016-10-06T03:36:56.069Z,0
2016-10-06T03:37:56.086Z,0
2016-10-06T03:38:56.092Z,0
2016-10-06T03:39:56.137Z,0
2016-10-06T03:40:56.150Z,0
2016-10-06T03:41:56.132Z,0
2016-10-06T03:42:56.164Z,0
2016-10-06T03:43:56.189Z,0
2016-10-06T03:44:56.202Z,0
2016-10-06T03:45:56.210Z,0
2016-10-06T03:46:56.230Z,0
2016-10-06T03:47:56.236Z,0
2016-10-06T03:48:56.250Z,0
2016-10-06T03:49:56.288Z,0
2016-10-06T03:50:56.279Z,0
2016-10-06T03:51:56.296Z,0
2016-10-06T03:52:56.325Z,0
2016-10-06T03:53:56.339Z,0
2016-10-06T03:54:56.352Z,0
2016-10-06T03:55:56.364Z,0
2016-10-06T03:56:56.397Z,0
2016-10-06T03:57:56.381Z,0
2016-10-06T03:58:56.409Z,0
2016-10-06T03:59:56.442Z,0
2016-10-06T04:01:40.945Z,0
2016-10-06T04:01:56.458Z,0
2016-10-06T04:02:56.448Z,0
2016-10-06T04:03:56.501Z,0
2016-10-06T04:04:56.483Z,0
2016-10-06T04:05:56.527Z,0
2016-10-06T04:06:56.524Z,0
2016-10-06T04:07:56.554Z,0
2016-10-06T04:08:56.573Z,0
2016-10-06T04:09:56.564Z,0
2016-10-06T04:10:56.603Z,0
2016-10-06T04:11:56.603Z,0
2016-10-06T04:12:56.629Z,0
2016-10-06T04:13:56.650Z,0
2016-10-06T04:14:56.643Z,0
2016-10-06T04:15:56.670Z,0
2016-10-06T04:16:56.710Z,0
2016-10-06T04:17:56.695Z,0
2016-10-06T04:18:56.726Z,0
2016-10-06T04:19:56.722Z,0
2016-10-06T04:20:56.763Z,0
2016-10-06T04:21:56.766Z,0
2016-10-06T04:22:56.770Z,0
2016-10-06T04:23:57.123Z,0
2016-10-06T04:24:56.810Z,0
2016-10-06T04:25:56.836Z,0
2016-10-06T04:26:56.840Z,0
2016-10-06T04:27:56.845Z,0
2016-10-06T04:28:56.869Z,0
2016-10-06T04:29:56.881Z,0
2016-10-06T04:30:56.909Z,0
2016-10-06T04:31:56.913Z,0
2016-10-06T04:32:56.936Z,0
2016-10-06T04:33:56.947Z,0
2016-10-06T04:34:56.965Z,0
2016-10-06T04:35:56.969Z,0
2016-10-06T04:36:56.994Z,0
2016-10-06T04:37:57.023Z,0
2016-10-06T04:38:57.028Z,0
2016-10-06T04:39:57.049Z,0
2016-10-06T04:40:57.050Z,0
2016-10-06T04:41:57.079Z,0
2016-10-06T04:42:57.090Z,0
2016-10-06T04:43:57.097Z,0
2016-10-06T04:44:57.134Z,0
2016-10-06T04:45:57.135Z,0
2016-10-06T04:46:57.564Z,0
2016-10-06T04:47:57.164Z,0
2016-10-06T04:48:57.169Z,0
2016-10-06T04:49:57.196Z,0
2016-10-06T04:50:57.198Z,0
2016-10-06T04:51:57.228Z,0
2016-10-06T04:52:57.229Z,0
2016-10-06T04:53:57.238Z,0
2016-10-06T04:54:57.262Z,0
2016-10-06T04:55:57.301Z,0
2016-10-06T04:56:57.297Z,0
2016-10-06T04:57:57.317Z,0
2016-10-06T04:58:57.323Z,0
2016-10-06T04:59:57.352Z,0
2016-10-06T05:00:57.366Z,0
2016-10-06T05:01:57.377Z,0
2016-10-06T05:02:57.395Z,0
2016-10-06T05:03:57.405Z,0
2016-10-06T05:04:57.425Z,0
2016-10-06T05:05:57.444Z,0
2016-10-06T05:06:57.450Z,0
2016-10-06T05:07:57.475Z,0
2016-10-06T05:08:57.490Z,0
2016-10-06T05:09:57.500Z,0
2016-10-06T05:10:57.522Z,0
2016-10-06T05:11:57.540Z,0
2016-10-06T05:12:57.549Z,0
2016-10-06T05:13:57.540Z,0
2016-10-06T05:14:57.605Z,0
2016-10-06T05:15:57.598Z,0
2016-10-06T05:16:57.600Z,0
2016-10-06T05:17:57.608Z,0
2016-10-06T05:18:57.630Z,0
2016-10-06T05:19:57.652Z,0
2016-10-06T05:20:57.678Z,0
2016-10-06T05:21:57.677Z,0
2016-10-06T05:22:57.690Z,0
2016-10-06T05:23:57.732Z,0
2016-10-06T05:24:57.732Z,0
2016-10-06T05:25:57.731Z,0
2016-10-06T05:26:57.753Z,0
2016-10-06T05:27:57.775Z,0
2016-10-06T05:28:57.795Z,0
2016-10-06T05:29:57.803Z,0
2016-10-06T05:30:57.818Z,0
2016-10-06T05:31:57.836Z,0
2016-10-06T05:32:57.835Z,0
2016-10-06T05:33:57.868Z,0
2016-10-06T05:34:57.886Z,0
2016-10-06T05:35:57.903Z,0
2016-10-06T05:36:57.902Z,0
2016-10-06T05:37:57.932Z,0
2016-10-06T05:38:57.943Z,0
2016-10-06T05:39:57.969Z,0
2016-10-06T05:40:57.961Z,0
2016-10-06T05:41:57.990Z,0
2016-10-06T05:42:58.012Z,0
2016-10-06T05:43:58.012Z,0
2016-10-06T05:44:58.043Z,0
2016-10-06T05:45:58.064Z,0
2016-10-06T05:46:58.055Z,0
2016-10-06T05:47:58.085Z,0
2016-10-06T05:48:58.104Z,0
2016-10-06T05:49:58.132Z,0
2016-10-06T05:50:58.119Z,0
2016-10-06T05:51:58.145Z,0
2016-10-06T05:52:58.151Z,0
2016-10-06T05:53:58.172Z,0
2016-10-06T05:54:58.173Z,0
2016-10-06T05:55:58.209Z,0
2016-10-06T05:56:58.209Z,0
2016-10-06T05:57:58.228Z,0
2016-10-06T05:58:58.256Z,0
2016-10-06T05:59:58.282Z,0
2016-10-06T06:00:58.285Z,0
2016-10-06T06:01:58.298Z,0
2016-10-06T06:02:58.327Z,5
2016-10-06T06:03:58.357Z,5
2016-10-06T06:04:58.336Z,5
2016-10-06T06:05:58.355Z,5
2016-10-06T06:06:58.380Z,5
2016-10-06T06:07:58.397Z,5
2016-10-06T06:08:58.408Z,5
2016-10-06T06:09:58.434Z,5
2016-10-06T06:10:58.457Z,5
2016-10-06T06:11:58.444Z,5
2016-10-06T06:12:58.481Z,5
2016-10-06T06:13:58.489Z,5
2016-10-06T06:14:58.509Z,5
2016-10-06T06:15:58.517Z,5
2016-10-06T06:16:58.575Z,5
2016-10-06T06:17:58.540Z,5
2016-10-06T06:18:58.581Z,5
2016-10-06T06:19:58.567Z,5
2016-10-06T06:20:58.618Z,5
2016-10-06T06:21:58.619Z,5
2016-10-06T06:22:58.703Z,10
2016-10-06T06:23:58.648Z,10
2016-10-06T06:24:58.700Z,10
2016-10-06T06:25:58.689Z,10
2016-10-06T06:26:58.751Z,10
2016-10-06T06:27:58.712Z,10
2016-10-06T06:28:58.794Z,10
2016-10-06T06:29:58.750Z,15
2016-10-06T06:30:58.800Z,15
2016-10-06T06:31:58.764Z,10
2016-10-06T06:32:58.800Z,10
2016-10-06T06:33:58.810Z,10
2016-10-06T06:34:58.837Z,10
2016-10-06T06:35:58.837Z,10
2016-10-06T06:36:58.839Z,10
2016-10-06T06:37:58.873Z,10
2016-10-06T06:38:58.887Z,10
2016-10-06T06:39:58.898Z,10
2016-10-06T06:40:58.901Z,10
2016-10-06T06:41:58.915Z,10
2016-10-06T06:42:58.947Z,10
2016-10-06T06:43:58.964Z,10
2016-10-06T06:44:58.967Z,10
2016-10-06T06:45:59.007Z,10
2016-10-06T06:46:59.006Z,10
2016-10-06T06:47:59.011Z,10
2016-10-06T06:48:59.029Z,10
2016-10-06T06:49:59.060Z,10
2016-10-06T06:50:59.078Z,10
2016-10-06T06:51:59.069Z,10
2016-10-06T06:52:59.082Z,10
2016-10-06T06:53:59.121Z,10
2016-10-06T06:54:59.131Z,10
2016-10-06T06:55:59.141Z,15
2016-10-06T06:56:59.168Z,15
2016-10-06T06:57:59.166Z,15
2016-10-06T06:58:59.199Z,15
2016-10-06T06:59:59.204Z,15
2016-10-06T07:00:59.217Z,15
2016-10-06T07:01:59.226Z,15
2016-10-06T07:02:59.260Z,15
2016-10-06T07:03:59.265Z,15
2016-10-06T07:04:59.290Z,15
2016-10-06T07:05:59.294Z,15
2016-10-06T07:06:59.291Z,15
2016-10-06T07:07:59.325Z,15
2016-10-06T07:08:59.341Z,15
2016-10-06T07:09:59.366Z,15
2016-10-06T07:10:59.359Z,15
2016-10-06T07:11:59.390Z,15
2016-10-06T07:12:59.390Z,15
2016-10-06T07:13:59.435Z,15
2016-10-06T07:14:59.434Z,15
2016-10-06T07:15:59.453Z,15
2016-10-06T07:16:59.458Z,15
2016-10-06T07:17:59.471Z,15
2016-10-06T07:18:59.488Z,15
2016-10-06T07:19:59.508Z,15
2016-10-06T07:20:59.525Z,15
2016-10-06T07:21:59.519Z,15
2016-10-06T07:22:59.566Z,20
2016-10-06T07:23:59.567Z,20
2016-10-06T07:24:59.568Z,20
2016-10-06T07:25:59.608Z,20
2016-10-06T07:26:59.607Z,20
2016-10-06T07:27:59.615Z,25
2016-10-06T07:28:59.661Z,25
2016-10-06T07:29:59.661Z,25
2016-10-06T07:30:59.708Z,25
2016-10-06T07:31:59.688Z,25
2016-10-06T07:32:59.710Z,25
2016-10-06T07:33:59.771Z,25
2016-10-06T07:34:59.769Z,30
2016-10-06T07:35:59.750Z,25
2016-10-06T07:36:59.779Z,25
2016-10-06T07:37:59.805Z,25
2016-10-06T07:38:59.800Z,25
2016-10-06T07:39:59.800Z,25
2016-10-06T07:40:59.803Z,20
2016-10-06T07:41:59.840Z,20
2016-10-06T07:42:59.850Z,20
2016-10-06T07:43:59.862Z,20
2016-10-06T07:44:59.938Z,20
2016-10-06T07:45:59.905Z,20
2016-10-06T07:46:59.918Z,20
2016-10-06T07:47:59.923Z,20
2016-10-06T07:48:59.931Z,20
2016-10-06T07:49:59.946Z,25
2016-10-06T07:50:59.974Z,25
2016-10-06T07:52:00.004Z,25
2016-10-06T07:52:59.991Z,20
2016-10-06T07:54:00.025Z,20
2016-10-06T07:55:00.036Z,20
2016-10-06T07:56:00.047Z,20
2016-10-06T07:57:00.053Z,20
2016-10-06T07:58:00.079Z,20
2016-10-06T07:59:00.150Z,20
2016-10-06T08:00:00.124Z,20
2016-10-06T08:01:00.130Z,20
2016-10-06T08:02:00.150Z,20
2016-10-06T08:03:00.147Z,20
2016-10-06T08:04:00.181Z,25
2016-10-06T08:05:00.191Z,25
2016-10-06T08:06:00.194Z,25
2016-10-06T08:07:00.221Z,25
2016-10-06T08:08:00.244Z,25
2016-10-06T08:09:00.300Z,25
2016-10-06T08:10:00.263Z,30
2016-10-06T08:11:00.329Z,30
2016-10-06T08:12:00.336Z,30
2016-10-06T08:13:00.366Z,35
2016-10-06T08:14:00.380Z,35
2016-10-06T08:15:00.349Z,30
2016-10-06T08:16:00.336Z,35
2016-10-06T08:17:00.356Z,35
2016-10-06T08:18:00.386Z,35
2016-10-06T08:19:00.428Z,35
2016-10-06T08:20:00.420Z,35
2016-10-06T08:21:00.436Z,35
2016-10-06T08:22:00.457Z,35
2016-10-06T08:23:00.467Z,35
2016-10-06T08:24:00.493Z,35
2016-10-06T08:25:00.490Z,35
2016-10-06T08:26:00.497Z,35
2016-10-06T08:27:00.547Z,35
2016-10-06T08:28:00.602Z,35
2016-10-06T08:29:00.568Z,40
2016-10-06T08:30:00.563Z,40
2016-10-06T08:31:00.580Z,35
2016-10-06T08:32:00.604Z,40
2016-10-06T08:33:00.655Z,35
2016-10-06T08:34:00.646Z,35
2016-10-06T08:35:00.666Z,35
2016-10-06T08:36:00.679Z,35
2016-10-06T08:37:00.686Z,40
2016-10-06T08:38:00.712Z,40
2016-10-06T08:39:00.718Z,40
2016-10-06T08:40:00.724Z,40
2016-10-06T08:41:00.751Z,40
2016-10-06T08:42:00.757Z,40
2016-10-06T08:43:00.768Z,40
2016-10-06T08:44:00.804Z,40
2016-10-06T08:45:00.800Z,45
2016-10-06T08:46:00.814Z,45
2016-10-06T08:47:00.851Z,40
2016-10-06T08:48:00.857Z,40
2016-10-06T08:49:00.868Z,40
2016-10-06T08:50:00.888Z,35
2016-10-06T08:51:00.965Z,35
2016-10-06T08:52:00.927Z,35
2016-10-06T08:53:00.967Z,35
2016-10-06T08:54:00.959Z,35
2016-10-06T08:55:00.980Z,40
2016-10-06T08:56:01.018Z,40
2016-10-06T08:57:01.066Z,40
2016-10-06T08:58:01.002Z,40
2016-10-06T08:59:01.058Z,45
2016-10-06T09:00:01.046Z,45
2016-10-06T09:01:01.101Z,45
2016-10-06T09:02:01.061Z,50
2016-10-06T09:03:01.103Z,50
2016-10-06T09:04:01.095Z,50
2016-10-06T09:05:01.140Z,55
2016-10-06T09:06:01.136Z,60
2016-10-06T09:07:01.163Z,60
2016-10-06T09:08:01.175Z,60
2016-10-06T09:09:01.199Z,60
2016-10-06T09:10:01.207Z,60
2016-10-06T09:11:01.215Z,60
2016-10-06T09:12:01.223Z,60
2016-10-06T09:13:01.251Z,60
2016-10-06T09:14:01.244Z,60
2016-10-06T09:15:01.268Z,60
2016-10-06T09:16:01.294Z,65
2016-10-06T09:17:01.302Z,70
2016-10-06T09:18:01.329Z,70
2016-10-06T09:19:01.337Z,65
2016-10-06T09:20:01.715Z,65
2016-10-06T09:21:01.363Z,70
2016-10-06T09:22:01.379Z,70
2016-10-06T09:23:01.408Z,70
2016-10-06T09:24:01.418Z,65
2016-10-06T09:25:01.417Z,70
2016-10-06T09:26:01.440Z,65
2016-10-06T09:27:01.460Z,65
2016-10-06T09:28:01.480Z,60
2016-10-06T09:29:01.501Z,60
2016-10-06T09:30:01.498Z,60
2016-10-06T09:31:01.517Z,55
2016-10-06T09:32:01.551Z,60
2016-10-06T09:33:01.549Z,60
2016-10-06T09:34:01.570Z,60
2016-10-06T09:35:01.583Z,60
2016-10-06T09:36:01.610Z,60
2016-10-06T09:37:01.611Z,65
2016-10-06T09:38:01.631Z,65
2016-10-06T09:39:01.661Z,65
2016-10-06T09:40:01.647Z,60
2016-10-06T09:41:01.690Z,60
2016-10-06T09:42:01.739Z,65
2016-10-06T09:43:01.749Z,65
2016-10-06T09:44:01.729Z,60
2016-10-06T09:45:01.758Z,60
2016-10-06T09:46:01.753Z,60
2016-10-06T09:47:01.781Z,65
2016-10-06T09:48:01.784Z,65
2016-10-06T09:49:01.844Z,65
2016-10-06T09:50:01.846Z,65
2016-10-06T09:51:01.885Z,65
2016-10-06T09:52:01.850Z,60
2016-10-06T09:53:01.931Z,60
2016-10-06T09:54:01.881Z,60
2016-10-06T09:55:01.954Z,60
2016-10-06T09:56:01.959Z,60
2016-10-06T09:57:01.966Z,65
2016-10-06T09:58:01.963Z,65
2016-10-06T09:59:01.964Z,65
2016-10-06T10:00:01.979Z,60
2016-10-06T10:01:01.993Z,60
2016-10-06T10:02:02.053Z,60
2016-10-06T10:03:02.052Z,55
2016-10-06T10:04:02.059Z,55
2016-10-06T10:05:02.101Z,55
2016-10-06T10:06:02.132Z,60
2016-10-06T10:07:02.096Z,55
2016-10-06T10:08:02.171Z,50
2016-10-06T10:09:02.173Z,50
2016-10-06T10:10:02.192Z,50
2016-10-06T10:11:02.178Z,45
2016-10-06T10:12:02.172Z,50
2016-10-06T10:13:02.202Z,45
2016-10-06T10:14:02.197Z,45
2016-10-06T10:15:02.264Z,50
2016-10-06T10:16:02.265Z,50
2016-10-06T10:17:02.268Z,55
2016-10-06T10:18:02.316Z,60
2016-10-06T10:19:02.352Z,60
2016-10-06T10:20:02.329Z,60
2016-10-06T10:21:02.374Z,55
2016-10-06T10:22:02.386Z,55
2016-10-06T10:23:02.387Z,55
2016-10-06T10:24:02.395Z,55
2016-10-06T10:25:02.410Z,55
2016-10-06T10:26:02.395Z,50
2016-10-06T10:27:02.425Z,50
2016-10-06T10:28:02.434Z,45
2016-10-06T10:29:02.494Z,45
2016-10-06T10:30:02.506Z,45
2016-10-06T10:31:02.516Z,50
2016-10-06T10:32:02.529Z,50
2016-10-06T10:33:02.534Z,50
2016-10-06T10:34:02.570Z,55
2016-10-06T10:35:02.596Z,55
2016-10-06T10:36:02.585Z,50
2016-10-06T10:37:02.621Z,50
2016-10-06T10:38:02.617Z,50
2016-10-06T10:39:02.621Z,50
2016-10-06T10:40:02.630Z,45
2016-10-06T10:41:02.642Z,50
2016-10-06T10:42:02.647Z,50
2016-10-06T10:43:02.699Z,50
2016-10-06T10:44:03.073Z,50
2016-10-06T10:45:02.724Z,50
2016-10-06T10:46:02.733Z,50
2016-10-06T10:47:02.782Z,50
2016-10-06T10:48:02.772Z,50
2016-10-06T10:49:02.814Z,55
2016-10-06T10:50:02.816Z,50
2016-10-06T10:51:02.835Z,50
2016-10-06T10:52:02.837Z,55
2016-10-06T10:53:02.835Z,55
2016-10-06T10:54:02.871Z,55
2016-10-06T10:55:02.838Z,55
2016-10-06T10:56:02.887Z,55
2016-10-06T10:57:02.885Z,55
2016-10-06T10:58:02.906Z,55
2016-10-06T10:59:02.914Z,55
2016-10-06T11:00:02.959Z,55
2016-10-06T11:01:02.965Z,55
2016-10-06T11:02:02.973Z,55
2016-10-06T11:03:02.994Z,60
2016-10-06T11:04:03.004Z,60
2016-10-06T11:05:03.015Z,60
2016-10-06T11:06:03.037Z,60
2016-10-06T11:07:03.056Z,60
2016-10-06T11:08:03.077Z,60
2016-10-06T11:09:03.087Z,60
2016-10-06T11:10:03.084Z,60
2016-10-06T11:11:03.102Z,65
2016-10-06T11:12:03.170Z,65
2016-10-06T11:13:03.147Z,65
2016-10-06T11:14:03.165Z,60
2016-10-06T11:15:03.191Z,60
2016-10-06T11:16:03.206Z,65
2016-10-06T11:17:03.221Z,70
2016-10-06T11:18:03.292Z,80
2016-10-06T11:19:03.232Z,80
2016-10-06T11:20:03.248Z,80
2016-10-06T11:21:03.281Z,70
2016-10-06T11:22:03.302Z,70
2016-10-06T11:23:03.298Z,65
2016-10-06T11:24:03.343Z,60
2016-10-06T11:25:03.400Z,60
2016-10-06T11:26:03.335Z,60
2016-10-06T11:27:03.460Z,60
2016-10-06T11:28:03.397Z,60
2016-10-06T11:29:03.503Z,55
2016-10-06T11:30:03.423Z,50
2016-10-06T11:31:03.483Z,50
2016-10-06T11:32:03.450Z,50
2016-10-06T11:33:03.505Z,50
2016-10-06T11:34:03.492Z,50
2016-10-06T11:35:03.523Z,50
2016-10-06T11:36:03.520Z,55
2016-10-06T11:37:03.561Z,60
2016-10-06T11:38:03.556Z,65
2016-10-06T11:39:03.596Z,70
2016-10-06T11:40:03.573Z,80
2016-10-06T11:41:03.611Z,85
2016-10-06T11:42:03.627Z,80
2016-10-06T11:43:03.642Z,85
2016-10-06T11:44:03.657Z,85
2016-10-06T11:45:03.660Z,85
2016-10-06T11:46:03.679Z,80
2016-10-06T11:47:03.689Z,75
2016-10-06T11:48:03.716Z,80
2016-10-06T11:49:03.731Z,75
2016-10-06T11:50:03.759Z,70
2016-10-06T11:51:03.779Z,65
2016-10-06T11:52:03.790Z,65
2016-10-06T11:53:03.780Z,65
2016-10-06T11:54:03.827Z,60
2016-10-06T11:55:03.839Z,55
2016-10-06T11:56:03.848Z,50
2016-10-06T11:57:03.872Z,45
2016-10-06T11:58:03.920Z,45
2016-10-06T11:59:03.911Z,40
2016-10-06T12:00:03.937Z,40
2016-10-06T12:01:03.949Z,35
2016-10-06T12:02:03.947Z,35
2016-10-06T12:03:03.958Z,35
2016-10-06T12:04:03.964Z,35
2016-10-06T12:05:03.988Z,35
2016-10-06T12:06:04.022Z,30
2016-10-06T12:07:04.021Z,30
2016-10-06T12:08:04.075Z,30
2016-10-06T12:09:04.044Z,30
2016-10-06T12:10:04.074Z,30
2016-10-06T12:11:04.180Z,30
2016-10-06T12:12:04.175Z,30
2016-10-06T12:13:04.160Z,30
2016-10-06T12:14:04.182Z,30
2016-10-06T12:15:04.194Z,35
2016-10-06T12:16:04.195Z,35
2016-10-06T12:17:04.196Z,35
2016-10-06T12:18:04.214Z,40
2016-10-06T12:19:04.247Z,40
2016-10-06T12:20:04.287Z,45
2016-10-06T12:21:04.307Z,45
2016-10-06T12:22:04.329Z,45
2016-10-06T12:23:04.479Z,50
2016-10-06T12:24:04.329Z,50
2016-10-06T12:25:04.403Z,55
2016-10-06T12:26:04.337Z,55
2016-10-06T12:27:04.409Z,60
2016-10-06T12:28:04.375Z,65
2016-10-06T12:29:04.403Z,65
2016-10-06T12:30:04.418Z,65
2016-10-06T12:31:04.498Z,70
2016-10-06T12:32:04.436Z,65
2016-10-06T12:33:04.498Z,70
2016-10-06T12:34:04.459Z,70
2016-10-06T12:35:04.514Z,70
2016-10-06T12:36:04.507Z,65
2016-10-06T12:37:04.586Z,65
2016-10-06T12:38:04.521Z,65
2016-10-06T12:39:04.610Z,65
2016-10-06T12:40:04.559Z,60
2016-10-06T12:41:04.606Z,60
2016-10-06T12:42:04.610Z,55
2016-10-06T12:43:04.629Z,45
2016-10-06T12:44:04.625Z,35
2016-10-06T12:45:04.710Z,30
2016-10-06T12:46:04.705Z,30
2016-10-06T12:47:04.709Z,30
2016-10-06T12:48:04.746Z,35
2016-10-06T12:49:04.752Z,40
2016-10-06T12:50:04.776Z,40
2016-10-06T12:51:04.759Z,45
2016-10-06T12:52:04.772Z,50
2016-10-06T12:53:04.776Z,55
2016-10-06T12:54:04.814Z,60
2016-10-06T12:55:04.837Z,55
2016-10-06T12:56:04.830Z,55
2016-10-06T12:57:04.881Z,55
2016-10-06T12:58:04.900Z,55
2016-10-06T12:59:04.889Z,55
2016-10-06T13:00:04.926Z,55
2016-10-06T13:01:04.923Z,50
2016-10-06T13:02:04.984Z,50
2016-10-06T13:03:04.950Z,50
2016-10-06T13:04:04.980Z,45
2016-10-06T13:05:04.992Z,40
2016-10-06T13:06:05.016Z,40
2016-10-06T13:07:05.017Z,40
2016-10-06T13:08:05.044Z,45
2016-10-06T13:09:05.067Z,45
2016-10-06T13:10:05.066Z,45
2016-10-06T13:11:05.080Z,50
2016-10-06T13:12:05.110Z,50
2016-10-06T13:13:05.103Z,50
2016-10-06T13:14:05.444Z,55
2016-10-06T13:15:05.142Z,55
2016-10-06T13:16:05.140Z,55
2016-10-06T13:17:05.283Z,60
2016-10-06T13:18:05.188Z,65
2016-10-06T13:19:05.219Z,65
2016-10-06T13:20:05.237Z,60
2016-10-06T13:21:05.246Z,60
2016-10-06T13:22:05.260Z,60
2016-10-06T13:23:05.304Z,65
2016-10-06T13:24:05.313Z,65
2016-10-06T13:25:05.308Z,65
2016-10-06T13:26:05.320Z,70
2016-10-06T13:27:05.358Z,70
2016-10-06T13:28:05.386Z,60
2016-10-06T13:29:05.383Z,60
2016-10-06T13:30:05.400Z,55
2016-10-06T13:31:05.415Z,45
2016-10-06T13:32:05.437Z,40
2016-10-06T13:33:05.443Z,35
2016-10-06T13:34:05.472Z,35
2016-10-06T13:35:05.490Z,35
2016-10-06T13:36:05.491Z,40
2016-10-06T13:37:05.522Z,40
2016-10-06T13:38:05.553Z,45
2016-10-06T13:39:05.559Z,55
2016-10-06T13:40:05.552Z,65
2016-10-06T13:41:05.591Z,60
2016-10-06T13:42:05.608Z,60
2016-10-06T13:43:05.623Z,55
2016-10-06T13:44:05.639Z,60
2016-10-06T13:45:05.646Z,55
2016-10-06T13:46:05.657Z,50
2016-10-06T13:47:05.663Z,50
2016-10-06T13:48:05.711Z,50
2016-10-06T13:49:05.715Z,50
2016-10-06T13:50:05.736Z,45
2016-10-06T13:51:05.754Z,45
2016-10-06T13:52:05.777Z,45
2016-10-06T13:53:05.783Z,50
2016-10-06T13:54:05.787Z,45
2016-10-06T13:55:05.821Z,40
2016-10-06T13:56:05.826Z,40
2016-10-06T13:57:05.849Z,40
2016-10-06T13:58:05.885Z,45
2016-10-06T13:59:05.881Z,45
2016-10-06T14:00:05.908Z,45
2016-10-06T14:01:05.943Z,50
2016-10-06T14:02:05.938Z,45
2016-10-06T14:03:05.949Z,40
2016-10-06T14:04:05.967Z,35
2016-10-06T14:05:05.975Z,35
2016-10-06T14:06:05.989Z,40
2016-10-06T14:07:06.019Z,45
2016-10-06T14:08:06.037Z,50
2016-10-06T14:09:06.059Z,60
2016-10-06T14:10:06.078Z,65
2016-10-06T14:11:06.076Z,65
2016-10-06T14:12:06.083Z,55
2016-10-06T14:13:06.158Z,50
2016-10-06T14:14:06.183Z,45
2016-10-06T14:15:06.163Z,45
2016-10-06T14:16:06.183Z,40
2016-10-06T14:17:06.158Z,40
2016-10-06T14:18:06.189Z,40
2016-10-06T14:19:06.205Z,40
2016-10-06T14:20:06.216Z,35
2016-10-06T14:21:06.252Z,35
2016-10-06T14:22:06.258Z,30
2016-10-06T14:23:06.279Z,30
2016-10-06T14:24:06.294Z,25
2016-10-06T14:25:06.319Z,25
2016-10-06T14:26:06.330Z,25
2016-10-06T14:27:06.342Z,25
2016-10-06T14:28:06.373Z,20
2016-10-06T14:29:06.379Z,20
2016-10-06T14:30:06.418Z,15